McFaddin, Texas
Current Conditions -  °F | °C
As of 3:15 AM on Monday 24 Nov 2014 (Local Time) from KPKV Reporting Station
Clear Clear  
Wind Chill: 56°   Ceiling: Unl
Heat Index: 56°   Visibility: 10mi
Dew Point: 49°   Wind: 15mph
Humidity: 76%   Direction: 360°N
Pressure: 29.85"   Gusts: NA
Location:  28.55°N, 97.01°W
Report Text: KPKV 240915Z AUTO 36013KT 10SM CLR 14/09 A2985 RMK AO2 T01350094
Loading
Personal Weather Stations






























Interactive Weather Map New forecast layout! Learn more

10-Day Weather Forecast

Advertisements
Track Severe Weather on mobile